Time;durP1;ratioP1;P1;durP2;ratioP2;P2;SDS_P1;SDS_P2;PMS_P1;PMS_P2;Temp;Humidity;BMP_temperature;BMP_pressure;BME280_temperature;BME280_humidity;BME280_pressure;Samples;Min_cycle;Max_cycle;Signal;HPM_P1;HPM_P2
2024/03/25 00:00:15;;;;;;;;;;;;;;;-4.05;91.42;94531.59;4941603;29;19958;-72
2024/03/25 00:02:40;;;;;;;;;;;;;;;-4.11;92.42;94539.84;4938195;28;20442;-72
2024/03/25 00:05:07;;;;;;;;;;;;;;;-4.10;91.69;94531.94;4941546;28;19928;-72
2024/03/25 00:07:32;;;;;;;;;;;;;;;-3.98;91.84;94534.59;4939325;28;19926;-72
2024/03/25 00:09:59;;;;;;;;;;;;;;;-4.13;91.82;94526.13;4940785;28;19932;-72
2024/03/25 00:12:25;;;;;;;;;;;;;;;-4.32;92.50;94530.91;4940380;29;19926;-72
2024/03/25 00:14:50;;;;;;;;;;;;;;;-4.11;91.78;94522.47;4940794;28;19932;-72
2024/03/25 00:17:16;;;;;;;;;;;;;;;-3.82;91.30;94532.47;4940967;29;20394;-72
2024/03/25 00:19:42;;;;;;;;;;;;;;;-4.08;91.80;94532.66;4940678;28;20490;-72
2024/03/25 00:22:07;;;;;;;;;;;;;;;-3.86;91.52;94527.63;4940419;28;19926;-72
2024/03/25 00:24:32;;;;;;;;;;;;;;;-3.82;90.76;94527.28;4955105;28;19926;-73
2024/03/25 00:26:58;;;;;;;;;;;;;;;-4.26;92.97;94523.59;4940756;28;20538;-72
2024/03/25 00:29:23;;;;;;;;;;;;;;;-4.22;93.51;94527.63;4941116;29;19926;-72
2024/03/25 00:31:48;;;;;;;;;;;;;;;-4.36;94.31;94541.66;4940490;28;20455;-71
2024/03/25 00:34:13;;;;;;;;;;;;;;;-4.45;95.05;94533.59;4939752;28;19927;-71
2024/03/25 00:36:38;;;;;;;;;;;;;;;-4.04;94.12;94522.88;4940779;29;19926;-71
2024/03/25 00:39:04;;;;;;;;;;;;;;;-4.18;94.03;94532.50;4939961;28;20021;-71
2024/03/25 00:41:30;;;;;;;;;;;;;;;-4.53;95.93;94535.06;4940534;28;19961;-71
2024/03/25 00:43:55;;;;;;;;;;;;;;;-4.51;96.55;94535.81;4939908;29;19923;-71
2024/03/25 00:46:21;;;;;;;;;;;;;;;-4.57;96.92;94534.47;4941154;28;19966;-72
2024/03/25 00:48:46;;;;;;;;;;;;;;;-4.73;97.31;94534.75;4938791;29;19931;-72
2024/03/25 00:51:11;;;;;;;;;;;;;;;-4.62;97.30;94537.41;4940327;28;19937;-72
2024/03/25 00:53:37;;;;;;;;;;;;;;;-4.83;98.51;94534.56;4940159;28;20534;-75
2024/03/25 00:56:02;;;;;;;;;;;;;;;-4.65;98.04;94548.03;4940491;28;20564;-75
2024/03/25 00:58:28;;;;;;;;;;;;;;;-4.66;97.43;94546.34;4940060;28;19938;-76
2024/03/25 01:00:53;;;;;;;;;;;;;;;-4.47;96.40;94555.44;4940266;28;20822;-75
2024/03/25 01:03:18;;;;;;;;;;;;;;;-4.30;95.34;94539.44;4939555;28;20058;-76
2024/03/25 01:05:43;;;;;;;;;;;;;;;-4.37;95.02;94534.78;4940016;28;19974;-74
2024/03/25 01:08:10;;;;;;;;;;;;;;;-4.31;94.47;94539.56;4940114;28;19962;-74
2024/03/25 01:10:36;;;;;;;;;;;;;;;-4.32;94.52;94536.13;4940492;28;20202;-76
2024/03/25 01:13:01;;;;;;;;;;;;;;;-4.20;94.45;94534.41;4937792;29;19966;-77
2024/03/25 01:15:27;;;;;;;;;;;;;;;-4.05;94.41;94529.81;4939136;28;20031;-75
2024/03/25 01:17:52;;;;;;;;;;;;;;;-4.08;94.31;94540.44;4939884;28;19937;-74
2024/03/25 01:20:18;;;;;;;;;;;;;;;-3.91;93.30;94536.59;4940427;28;20304;-76
2024/03/25 01:22:43;;;;;;;;;;;;;;;-4.04;91.92;94535.88;4940521;28;19965;-76
2024/03/25 01:25:08;;;;;;;;;;;;;;;-4.02;92.04;94538.31;4940874;28;19918;-74
2024/03/25 01:27:34;;;;;;;;;;;;;;;-3.98;93.23;94543.19;4940544;28;19971;-76
2024/03/25 01:30:00;;;;;;;;;;;;;;;-4.31;93.35;94553.38;4940544;28;20527;-75
2024/03/25 01:32:25;;;;;;;;;;;;;;;-4.36;93.92;94547.69;4940774;28;19937;-78
2024/03/25 01:34:50;;;;;;;;;;;;;;;-4.27;93.80;94551.38;4939692;28;19926;-76
2024/03/25 01:37:16;;;;;;;;;;;;;;;-4.24;92.51;94542.53;4940773;29;19933;-75
2024/03/25 01:39:41;;;;;;;;;;;;;;;-4.11;89.57;94545.88;4940845;28;19930;-76
2024/03/25 01:42:06;;;;;;;;;;;;;;;-4.41;90.92;94544.59;4940351;28;19933;-74
2024/03/25 01:44:31;;;;;;;;;;;;;;;-3.93;89.97;94548.88;4940964;29;19933;-75
2024/03/25 01:46:57;;;;;;;;;;;;;;;-3.97;88.56;94539.66;4939973;28;19973;-75
2024/03/25 01:49:22;;;;;;;;;;;;;;;-3.29;87.37;94548.50;4939127;29;20088;-76
2024/03/25 01:51:48;;;;;;;;;;;;;;;-3.35;84.70;94547.19;4940741;28;19930;-76
2024/03/25 01:54:16;;;;;;;;;;;;;;;-3.94;88.07;94543.81;4939953;28;19992;-73
2024/03/25 01:56:42;;;;;;;;;;;;;;;-3.83;88.36;94545.59;4939713;29;20291;-75
2024/03/25 01:59:07;;;;;;;;;;;;;;;-4.19;88.82;94537.81;4938882;28;20241;-74
2024/03/25 02:01:32;;;;;;;;;;;;;;;-4.05;87.93;94548.03;4938826;28;20700;-77
2024/03/25 02:03:57;;;;;;;;;;;;;;;-4.06;88.08;94548.13;4940637;28;20232;-72
2024/03/25 02:06:23;;;;;;;;;;;;;;;-3.83;87.15;94546.44;4937673;29;19931;-72
2024/03/25 02:08:49;;;;;;;;;;;;;;;-3.62;86.82;94547.53;4939303;29;19930;-72
2024/03/25 02:11:14;;;;;;;;;;;;;;;-3.51;86.22;94565.75;4939964;28;20161;-72
2024/03/25 02:13:39;;;;;;;;;;;;;;;-3.67;86.39;94555.69;4937902;28;19970;-72
2024/03/25 02:16:05;;;;;;;;;;;;;;;-3.43;85.55;94555.59;4940726;28;19915;-72
2024/03/25 02:18:30;;;;;;;;;;;;;;;-3.83;86.69;94571.63;4939388;28;19926;-72
2024/03/25 02:20:56;;;;;;;;;;;;;;;-3.60;85.55;94569.06;4939967;29;20388;-72
2024/03/25 02:23:21;;;;;;;;;;;;;;;-3.83;86.54;94564.66;4938625;29;20058;-72
2024/03/25 02:25:50;;;;;;;;;;;;;;;-3.67;86.42;94564.31;4939803;28;19931;-72
2024/03/25 02:28:15;;;;;;;;;;;;;;;-3.54;86.56;94566.81;4939498;28;20303;-72
2024/03/25 02:30:40;;;;;;;;;;;;;;;-3.42;84.59;94562.47;4943810;28;20252;-72
2024/03/25 02:33:05;;;;;;;;;;;;;;;-3.13;84.89;94561.16;4943355;29;20526;-72
2024/03/25 02:35:31;;;;;;;;;;;;;;;-3.41;84.43;94558.91;4943265;28;19934;-72
2024/03/25 02:37:57;;;;;;;;;;;;;;;-3.69;85.73;94560.16;4941890;29;19931;-72
2024/03/25 02:40:22;;;;;;;;;;;;;;;-3.06;84.27;94558.91;4942361;28;19970;-72
2024/03/25 02:42:47;;;;;;;;;;;;;;;-2.93;84.17;94556.16;4941593;28;20295;-72
2024/03/25 02:45:13;;;;;;;;;;;;;;;-2.73;82.29;94556.38;4943488;28;19927;-72
2024/03/25 02:47:38;;;;;;;;;;;;;;;-2.19;80.76;94559.91;4942656;28;20047;-72
2024/03/25 02:50:03;;;;;;;;;;;;;;;-2.11;79.45;94567.09;4958245;28;19980;-72
2024/03/25 02:52:29;;;;;;;;;;;;;;;-2.40;80.23;94565.06;4943510;29;19930;-72
2024/03/25 02:54:54;;;;;;;;;;;;;;;-2.69;81.80;94565.59;4944170;28;20458;-72
2024/03/25 02:57:19;;;;;;;;;;;;;;;-2.87;83.65;94571.31;4945294;28;19937;-73
2024/03/25 02:59:45;;;;;;;;;;;;;;;-2.72;83.16;94568.47;4942812;28;20446;-72
2024/03/25 03:02:10;;;;;;;;;;;;;;;-2.32;80.83;94567.88;4943291;28;20463;-72
2024/03/25 03:04:35;;;;;;;;;;;;;;;-2.15;80.00;94568.28;4960355;28;20402;-72
2024/03/25 03:07:00;;;;;;;;;;;;;;;-2.86;82.07;94572.97;4943288;28;20440;-72
2024/03/25 03:09:26;;;;;;;;;;;;;;;-3.04;83.27;94570.03;4946888;28;19949;-72
2024/03/25 03:11:51;;;;;;;;;;;;;;;-3.21;84.43;94573.94;4942912;28;19930;-72
2024/03/25 03:14:16;;;;;;;;;;;;;;;-3.42;84.51;94566.84;4945045;28;20106;-77
2024/03/25 03:16:41;;;;;;;;;;;;;;;-3.87;86.81;94573.59;4944317;28;19922;-73
2024/03/25 03:19:07;;;;;;;;;;;;;;;-3.13;85.37;94576.78;4944744;28;20396;-77
2024/03/25 03:21:32;;;;;;;;;;;;;;;-3.48;85.89;94582.91;4942943;28;20383;-74
2024/03/25 03:23:57;;;;;;;;;;;;;;;-3.16;84.53;94566.63;4957912;28;19977;-77
2024/03/25 03:26:26;;;;;;;;;;;;;;;-2.79;82.90;94571.53;4942203;28;20575;-75
2024/03/25 03:28:55;;;;;;;;;;;;;;;-3.19;82.49;94572.06;4943397;28;20784;-76
2024/03/25 03:31:21;;;;;;;;;;;;;;;-3.27;82.96;94570.03;4940980;28;20474;-74
2024/03/25 03:33:46;;;;;;;;;;;;;;;-2.99;84.16;94577.50;4941255;28;19965;-77
2024/03/25 03:36:12;;;;;;;;;;;;;;;-2.82;81.84;94571.78;4957974;28;19970;-75
2024/03/25 03:38:37;;;;;;;;;;;;;;;-2.97;82.02;94575.59;4942073;28;19994;-74
2024/03/25 03:41:03;;;;;;;;;;;;;;;-2.91;81.78;94569.91;4942052;28;20355;-78
2024/03/25 03:43:28;;;;;;;;;;;;;;;-3.06;82.16;94572.75;4939843;28;20037;-74
2024/03/25 03:45:53;;;;;;;;;;;;;;;-2.73;82.21;94575.44;4942279;28;20626;-74
2024/03/25 03:48:19;;;;;;;;;;;;;;;-3.11;81.99;94576.66;4941189;29;19934;-76
2024/03/25 03:50:44;;;;;;;;;;;;;;;-3.68;84.67;94572.22;4943972;28;19930;-78
2024/03/25 03:53:09;;;;;;;;;;;;;;;-3.08;82.79;94579.03;4941844;29;19922;-73
2024/03/25 03:55:35;;;;;;;;;;;;;;;-3.19;83.09;94574.66;4940887;28;19926;-76
2024/03/25 03:58:00;;;;;;;;;;;;;;;-2.95;81.76;94566.69;4941026;29;19934;-78
2024/03/25 04:00:25;;;;;;;;;;;;;;;-3.48;83.61;94573.34;4937240;29;20337;-76
2024/03/25 04:02:51;;;;;;;;;;;;;;;-3.06;82.39;94567.53;4941420;28;20161;-73
2024/03/25 04:05:16;;;;;;;;;;;;;;;-2.99;82.54;94577.50;4942345;29;19923;-76
2024/03/25 04:07:42;;;;;;;;;;;;;;;-2.96;81.21;94578.06;4941880;28;19931;-73
2024/03/25 04:10:07;;;;;;;;;;;;;;;-3.22;81.43;94580.94;4941980;28;20694;-77
2024/03/25 04:12:33;;;;;;;;;;;;;;;-3.15;82.42;94586.50;4942161;29;19930;-75
2024/03/25 04:14:58;;;;;;;;;;;;;;;-2.89;81.28;94581.88;4941451;28;19926;-78
2024/03/25 04:17:23;;;;;;;;;;;;;;;-2.52;79.76;94575.53;4941956;28;19926;-78
2024/03/25 04:19:49;;;;;;;;;;;;;;;-2.67;79.94;94582.78;4942242;28;20022;-75
2024/03/25 04:22:14;;;;;;;;;;;;;;;-3.04;80.74;94580.44;4941329;28;20001;-78
2024/03/25 04:24:39;;;;;;;;;;;;;;;-3.04;80.50;94586.50;4941869;28;19937;-73
2024/03/25 04:27:05;;;;;;;;;;;;;;;-3.24;81.17;94582.81;4941686;28;21125;-73
2024/03/25 04:29:30;;;;;;;;;;;;;;;-3.22;81.64;94593.13;4941660;28;20005;-73
2024/03/25 04:31:55;;;;;;;;;;;;;;;-3.03;81.15;94585.53;4941763;28;19930;-73
2024/03/25 04:34:20;;;;;;;;;;;;;;;-2.97;80.83;94583.41;4941105;28;19977;-73
2024/03/25 04:36:46;;;;;;;;;;;;;;;-3.11;81.12;94577.50;4941899;29;20379;-73
2024/03/25 04:39:11;;;;;;;;;;;;;;;-3.38;81.16;94583.88;4941029;28;19960;-73
2024/03/25 04:41:36;;;;;;;;;;;;;;;-3.14;80.85;94585.53;4942477;28;19961;-73
2024/03/25 04:44:02;;;;;;;;;;;;;;;-3.10;81.21;94592.16;4941211;29;19981;-73
2024/03/25 04:46:27;;;;;;;;;;;;;;;-3.04;80.14;94590.88;4940800;28;20497;-72
2024/03/25 04:48:53;;;;;;;;;;;;;;;-2.54;78.57;94585.22;4940998;29;19983;-73
2024/03/25 04:51:18;;;;;;;;;;;;;;;-2.76;78.81;94583.50;4940764;28;19977;-74
2024/03/25 04:53:44;;;;;;;;;;;;;;;-2.71;79.20;94585.75;4940519;28;20861;-74
2024/03/25 04:56:09;;;;;;;;;;;;;;;-2.80;79.22;94593.34;4941929;28;19919;-73
2024/03/25 04:58:34;;;;;;;;;;;;;;;-2.67;79.16;94585.41;4941225;28;19927;-73
2024/03/25 05:00:59;;;;;;;;;;;;;;;-2.16;77.81;94579.69;4933498;28;19922;-73
2024/03/25 05:03:25;;;;;;;;;;;;;;;-1.63;75.65;94578.03;4940565;28;19926;-73
2024/03/25 05:05:50;;;;;;;;;;;;;;;-2.32;75.18;94591.34;4941131;28;20017;-73
2024/03/25 05:08:15;;;;;;;;;;;;;;;-2.04;74.98;94590.91;4940485;29;19973;-73
2024/03/25 05:10:40;;;;;;;;;;;;;;;-2.00;73.61;94585.31;4955365;28;20532;-74
2024/03/25 05:13:06;;;;;;;;;;;;;;;-2.42;74.52;94591.25;4940019;29;19957;-74
2024/03/25 05:15:31;;;;;;;;;;;;;;;-2.20;74.25;94599.13;4941166;28;20021;-73
2024/03/25 05:17:56;;;;;;;;;;;;;;;-2.65;74.84;94596.50;4941246;28;19961;-73
2024/03/25 05:20:21;;;;;;;;;;;;;;;-2.77;76.10;94598.31;4941079;28;19929;-73
2024/03/25 05:22:46;;;;;;;;;;;;;;;-2.72;76.82;94590.13;4940391;28;19933;-72
2024/03/25 05:25:12;;;;;;;;;;;;;;;-2.88;78.45;94598.34;4940660;29;20543;-73
2024/03/25 05:27:37;;;;;;;;;;;;;;;-3.55;81.49;94596.41;4940435;28;19989;-73
2024/03/25 05:30:03;;;;;;;;;;;;;;;-3.33;80.33;94594.75;4939429;28;19927;-73
2024/03/25 05:32:28;;;;;;;;;;;;;;;-3.41;80.14;94597.97;4940124;29;19973;-73
2024/03/25 05:34:53;;;;;;;;;;;;;;;-3.74;82.24;94594.31;4940437;28;19962;-72
2024/03/25 05:37:19;;;;;;;;;;;;;;;-3.75;81.16;94587.47;4939765;29;19930;-72
2024/03/25 05:39:44;;;;;;;;;;;;;;;-3.87;81.73;94604.81;4940331;28;19930;-73
2024/03/25 05:42:09;;;;;;;;;;;;;;;-3.58;80.29;94598.38;4938952;29;19985;-73
2024/03/25 05:44:34;;;;;;;;;;;;;;;-3.83;80.00;94598.47;4939874;28;19926;-73
2024/03/25 05:46:59;;;;;;;;;;;;;;;-3.94;80.74;94601.03;4939614;28;19934;-73
2024/03/25 05:49:25;;;;;;;;;;;;;;;-3.92;80.62;94601.72;4954570;28;19957;-73
2024/03/25 05:51:51;;;;;;;;;;;;;;;-4.02;80.97;94601.56;4940083;28;19950;-73
2024/03/25 05:54:16;;;;;;;;;;;;;;;-4.09;82.05;94610.75;4939845;28;20017;-73
2024/03/25 05:56:41;;;;;;;;;;;;;;;-4.11;81.95;94610.88;4955236;28;20770;-73
2024/03/25 05:59:06;;;;;;;;;;;;;;;-4.31;83.83;94607.94;4939566;28;19926;-73
2024/03/25 06:01:33;;;;;;;;;;;;;;;-3.73;81.90;94602.97;4940227;28;20019;-73
2024/03/25 06:03:59;;;;;;;;;;;;;;;-3.70;82.41;94598.34;4944527;28;19934;-73
2024/03/25 06:06:24;;;;;;;;;;;;;;;-3.64;81.75;94611.88;4942332;28;20511;-73
2024/03/25 06:08:50;;;;;;;;;;;;;;;-3.49;80.54;94605.53;4941603;28;19973;-73
2024/03/25 06:11:15;;;;;;;;;;;;;;;-3.53;80.92;94602.31;4942348;28;19956;-73
2024/03/25 06:13:41;;;;;;;;;;;;;;;-3.53;80.77;94611.91;4943141;28;20687;-72
2024/03/25 06:16:06;;;;;;;;;;;;;;;-2.83;80.26;94603.16;4943001;29;19915;-73
2024/03/25 06:18:31;;;;;;;;;;;;;;;-2.77;78.83;94605.31;4958084;28;19927;-73
2024/03/25 06:20:56;;;;;;;;;;;;;;;-2.30;77.42;94607.72;4944270;29;19923;-72
2024/03/25 06:23:25;;;;;;;;;;;;;;;-2.43;77.67;94607.03;4943428;28;19937;-72
2024/03/25 06:25:50;;;;;;;;;;;;;;;-2.83;78.19;94597.94;4941930;29;19927;-72
2024/03/25 06:28:16;;;;;;;;;;;;;;;-2.34;77.98;94603.69;4943747;28;20547;-72
2024/03/25 06:36:09;;;;;;;;;;;;;;;-2.12;77.89;94608.00;4942839;28;19937;-73
2024/03/25 06:38:34;;;;;;;;;;;;;;;-1.96;75.26;94611.16;4943479;28;19926;-73
2024/03/25 06:40:59;;;;;;;;;;;;;;;-1.98;76.71;94606.06;4943971;28;19976;-73
2024/03/25 06:43:24;;;;;;;;;;;;;;;-1.96;75.10;94613.75;4943486;28;20041;-73
2024/03/25 06:45:50;;;;;;;;;;;;;;;-2.32;75.99;94607.00;4943242;28;20273;-77
2024/03/25 06:48:15;;;;;;;;;;;;;;;-1.89;75.28;94610.53;4944385;29;20009;-74
2024/03/25 06:50:40;;;;;;;;;;;;;;;-2.21;75.02;94618.34;4942374;28;19937;-76
2024/03/25 06:53:06;;;;;;;;;;;;;;;-1.90;74.14;94615.88;4943256;28;20659;-76
2024/03/25 06:55:31;;;;;;;;;;;;;;;-2.45;74.45;94616.75;4939611;28;19941;-74
2024/03/25 06:57:56;;;;;;;;;;;;;;;-2.34;75.13;94621.94;4942205;28;20000;-75
2024/03/25 07:00:22;;;;;;;;;;;;;;;-2.81;76.67;94622.13;4954698;28;19926;-74
2024/03/25 07:02:47;;;;;;;;;;;;;;;-2.04;75.04;94620.41;4941091;29;20086;-73
2024/03/25 07:05:12;;;;;;;;;;;;;;;-1.75;74.10;94632.06;4942998;28;20025;-76
2024/03/25 07:07:38;;;;;;;;;;;;;;;-1.74;74.52;94633.69;4943338;28;19950;-76
2024/03/25 07:10:03;;;;;;;;;;;;;;;-1.65;72.57;94632.97;4942532;28;20046;-77
2024/03/25 07:12:28;;;;;;;;;;;;;;;-1.06;72.69;94624.66;4943496;28;19992;-77
2024/03/25 07:14:53;;;;;;;;;;;;;;;-1.13;70.62;94626.97;4941441;28;19927;-76
2024/03/25 07:17:19;;;;;;;;;;;;;;;-1.05;70.20;94635.94;4943211;29;19940;-76
2024/03/25 07:19:45;;;;;;;;;;;;;;;-1.50;72.73;94638.69;4942269;28;20016;-74
2024/03/25 07:22:10;;;;;;;;;;;;;;;-1.47;71.29;94633.22;4942984;28;19923;-74
2024/03/25 07:24:35;;;;;;;;;;;;;;;-1.11;70.26;94637.28;4942236;28;19938;-76
2024/03/25 07:27:00;;;;;;;;;;;;;;;-1.12;71.20;94640.84;4936648;28;19997;-76
2024/03/25 07:29:26;;;;;;;;;;;;;;;-0.93;69.69;94639.31;4944239;28;19926;-74
2024/03/25 07:31:51;;;;;;;;;;;;;;;-0.55;69.25;94640.44;4942879;28;19922;-76
2024/03/25 07:34:16;;;;;;;;;;;;;;;-0.58;68.77;94638.91;4942489;28;20378;-75
2024/03/25 07:36:41;;;;;;;;;;;;;;;-0.33;66.98;94641.19;4956666;28;20017;-77
2024/03/25 07:39:10;;;;;;;;;;;;;;;-0.06;65.43;94631.88;4942049;28;19965;-76
2024/03/25 07:41:35;;;;;;;;;;;;;;;-0.05;65.71;94639.59;4943171;28;19973;-75
2024/03/25 07:44:01;;;;;;;;;;;;;;;-0.09;64.83;94640.00;4940339;28;20323;-76
2024/03/25 07:46:26;;;;;;;;;;;;;;;-0.71;65.98;94636.53;4941084;28;20026;-76
2024/03/25 07:48:51;;;;;;;;;;;;;;;-1.00;65.91;94644.22;4942205;28;19960;-77
2024/03/25 07:51:17;;;;;;;;;;;;;;;-1.35;68.27;94636.59;4941223;28;20390;-77
2024/03/25 07:53:42;;;;;;;;;;;;;;;-1.64;67.70;94645.06;4942725;28;19974;-73
2024/03/25 07:56:07;;;;;;;;;;;;;;;-1.48;68.58;94639.41;4941500;28;19973;-73
2024/03/25 07:58:33;;;;;;;;;;;;;;;-1.23;68.98;94639.97;4941978;28;19942;-74
2024/03/25 08:00:58;;;;;;;;;;;;;;;-0.43;70.30;94649.00;4938252;29;19977;-73
2024/03/25 08:03:25;;;;;;;;;;;;;;;0.06;67.76;94653.50;4941537;28;19926;-73
2024/03/25 08:05:50;;;;;;;;;;;;;;;0.32;62.35;94651.19;4941146;28;19926;-74
2024/03/25 08:08:15;;;;;;;;;;;;;;;0.81;60.94;94647.69;4942083;29;19941;-74
2024/03/25 08:10:41;;;;;;;;;;;;;;;0.64;59.33;94656.25;4939186;28;20125;-74
2024/03/25 08:13:06;;;;;;;;;;;;;;;0.39;61.67;94654.09;4941488;28;20066;-74
2024/03/25 08:15:31;;;;;;;;;;;;;;;0.68;62.01;94647.19;4940388;28;19985;-74
2024/03/25 08:17:56;;;;;;;;;;;;;;;0.62;62.56;94650.34;4941016;28;20060;-74
2024/03/25 08:20:22;;;;;;;;;;;;;;;0.39;58.63;94650.63;4938997;29;19923;-73
2024/03/25 08:22:48;;;;;;;;;;;;;;;0.06;61.07;94656.97;4941038;28;20443;-74
2024/03/25 08:25:13;;;;;;;;;;;;;;;0.77;59.92;94645.50;4936794;28;20042;-73
2024/03/25 08:27:38;;;;;;;;;;;;;;;0.46;57.26;94646.50;4934295;28;19981;-74
2024/03/25 08:30:04;;;;;;;;;;;;;;;0.37;59.19;94652.56;4938846;28;19973;-74
2024/03/25 08:32:29;;;;;;;;;;;;;;;0.65;59.58;94652.69;4940482;28;19933;-75
2024/03/25 08:34:54;;;;;;;;;;;;;;;1.72;58.14;94644.63;4940432;28;20018;-74
2024/03/25 08:37:19;;;;;;;;;;;;;;;1.58;56.74;94641.53;4941077;28;19969;-74
2024/03/25 08:39:45;;;;;;;;;;;;;;;2.07;55.24;94642.22;4940596;28;19923;-74
2024/03/25 08:42:10;;;;;;;;;;;;;;;2.04;52.40;94645.97;4941797;28;19966;-74
2024/03/25 08:44:36;;;;;;;;;;;;;;;2.49;53.36;94638.19;4939302;28;20636;-74
2024/03/25 08:47:01;;;;;;;;;;;;;;;2.22;51.38;94632.84;4939463;28;19954;-73
2024/03/25 08:49:26;;;;;;;;;;;;;;;1.87;52.74;94632.66;4939746;28;19937;-74
2024/03/25 08:51:52;;;;;;;;;;;;;;;2.51;53.14;94636.22;4941265;28;19972;-74
2024/03/25 08:54:17;;;;;;;;;;;;;;;1.87;52.75;94648.41;4940351;28;19937;-74
2024/03/25 08:56:42;;;;;;;;;;;;;;;1.06;53.39;94642.78;4940488;28;19926;-74
2024/03/25 08:59:09;;;;;;;;;;;;;;;2.75;53.40;94645.25;4938952;29;20467;-74
2024/03/25 09:01:34;;;;;;;;;;;;;;;3.28;50.63;94647.91;4940133;28;19969;-74
2024/03/25 09:03:59;;;;;;;;;;;;;;;3.00;49.24;94650.72;4939092;29;19966;-74
2024/03/25 09:06:25;;;;;;;;;;;;;;;2.95;46.81;94650.31;4939878;28;20010;-74
2024/03/25 09:11:34;;;;;;;;;;;;;;;3.09;47.91;94655.03;4940475;28;20049;-74
2024/03/25 09:13:59;;;;;;;;;;;;;;;3.67;46.06;94650.09;4938977;29;20033;-73
2024/03/25 09:16:24;;;;;;;;;;;;;;;2.79;50.57;94662.38;4940551;29;19933;-74
2024/03/25 09:18:50;;;;;;;;;;;;;;;3.79;48.04;94661.19;4938864;29;19948;-73
2024/03/25 09:21:15;;;;;;;;;;;;;;;4.39;44.39;94647.97;4939966;29;20039;-72
2024/03/25 09:23:40;;;;;;;;;;;;;;;3.63;46.69;94651.41;4940852;28;20384;-72
2024/03/25 09:26:05;;;;;;;;;;;;;;;3.30;45.11;94656.47;4939859;28;19964;-75
2024/03/25 09:28:31;;;;;;;;;;;;;;;3.41;46.66;94648.31;4935342;28;19922;-72
2024/03/25 09:30:56;;;;;;;;;;;;;;;3.84;44.43;94638.81;4938215;28;19926;-72
2024/03/25 09:33:21;;;;;;;;;;;;;;;4.42;44.54;94647.66;4940715;29;19933;-74
2024/03/25 09:35:47;;;;;;;;;;;;;;;4.47;42.86;94644.53;4954543;28;20324;-72
2024/03/25 09:38:12;;;;;;;;;;;;;;;4.60;40.78;94635.31;4938650;28;19930;-71
2024/03/25 09:40:39;;;;;;;;;;;;;;;4.00;41.18;94641.50;4938032;28;19926;-71
2024/03/25 09:43:04;;;;;;;;;;;;;;;3.60;42.97;94635.91;4940301;28;19966;-73
2024/03/25 09:45:30;;;;;;;;;;;;;;;4.08;41.65;94638.03;4941628;28;20022;-72
2024/03/25 09:47:55;;;;;;;;;;;;;;;3.73;44.21;94639.91;4954060;28;19935;-71
2024/03/25 09:50:20;;;;;;;;;;;;;;;3.89;48.84;94632.09;4940018;28;19927;-72
2024/03/25 09:52:46;;;;;;;;;;;;;;;3.67;44.26;94634.31;4939245;28;19930;-73
2024/03/25 09:55:11;;;;;;;;;;;;;;;3.44;45.89;94634.03;4954176;28;19926;-71
2024/03/25 09:57:38;;;;;;;;;;;;;;;3.50;45.17;94637.88;4939630;28;19972;-73
2024/03/25 10:00:04;;;;;;;;;;;;;;;4.21;43.54;94632.31;4933547;28;20538;-73
2024/03/25 10:02:29;;;;;;;;;;;;;;;4.04;44.11;94634.91;4938005;29;20013;-73
2024/03/25 10:04:54;;;;;;;;;;;;;;;3.67;43.91;94636.94;4938741;28;20307;-74
2024/03/25 10:07:23;;;;;;;;;;;;;;;4.04;42.67;94627.00;4938976;28;19927;-70
2024/03/25 10:09:49;;;;;;;;;;;;;;;4.34;43.12;94629.19;4939443;28;20450;-73
2024/03/25 10:12:14;;;;;;;;;;;;;;;4.70;46.95;94615.69;4939516;29;19964;-73
2024/03/25 10:14:40;;;;;;;;;;;;;;;4.92;42.62;94605.47;4936670;29;20538;-72
2024/03/25 10:17:05;;;;;;;;;;;;;;;5.63;43.25;94609.25;4940494;28;20100;-74
2024/03/25 10:19:30;;;;;;;;;;;;;;;5.81;40.34;94608.16;4938722;28;20056;-74
2024/03/25 10:22:05;;;;;;;;;;;;;;;5.95;43.31;94607.44;4940161;28;19927;-74
2024/03/25 10:24:43;;;;;;;;;;;;;;;5.30;44.28;94602.25;4938295;28;20376;-74
2024/03/25 10:27:21;;;;;;;;;;;;;;;5.20;39.22;94602.47;4937645;28;20296;-75
2024/03/25 10:29:55;;;;;;;;;;;;;;;6.00;45.04;94596.34;4938508;28;20304;-74
2024/03/25 10:32:20;;;;;;;;;;;;;;;5.24;35.76;94589.75;4938413;29;19922;-74
2024/03/25 10:34:46;;;;;;;;;;;;;;;4.58;36.88;94593.28;4939571;28;20418;-73
2024/03/25 10:37:11;;;;;;;;;;;;;;;5.52;36.08;94589.34;4941167;28;20021;-74
2024/03/25 10:39:41;;;;;;;;;;;;;;;5.98;38.04;94587.75;4936645;28;19930;-73
2024/03/25 10:42:06;;;;;;;;;;;;;;;7.09;38.56;94583.94;4937370;29;19930;-73
2024/03/25 10:44:32;;;;;;;;;;;;;;;7.13;37.03;94589.69;4933343;29;19929;-73
2024/03/25 10:46:59;;;;;;;;;;;;;;;6.90;38.98;94577.34;4937937;28;19937;-74
2024/03/25 10:49:47;;;;;;;;;;;;;;;6.99;46.22;94576.28;4938933;28;20630;-74
2024/03/25 10:52:12;;;;;;;;;;;;;;;7.10;33.60;94568.88;4933673;28;19938;-74
2024/03/25 10:54:38;;;;;;;;;;;;;;;6.51;33.91;94579.19;4943014;28;19931;-74
2024/03/25 10:57:03;;;;;;;;;;;;;;;7.06;34.64;94576.34;4942175;28;20276;-75
2024/03/25 10:59:29;;;;;;;;;;;;;;;7.86;33.33;94572.31;4939009;28;19965;-74
2024/03/25 11:01:54;;;;;;;;;;;;;;;7.68;31.72;94573.50;4941428;28;19930;-74
2024/03/25 11:04:20;;;;;;;;;;;;;;;7.51;35.23;94573.72;4940908;29;19934;-74
2024/03/25 11:06:45;;;;;;;;;;;;;;;7.68;33.69;94568.19;4939276;28;20159;-74
2024/03/25 11:09:10;;;;;;;;;;;;;;;7.46;32.64;94565.50;4941856;28;20115;-74
2024/03/25 11:11:36;;;;;;;;;;;;;;;7.29;35.74;94562.22;4942342;28;19930;-74
2024/03/25 11:14:05;;;;;;;;;;;;;;;7.10;34.07;94560.94;4940911;29;19926;-74
2024/03/25 11:16:30;;;;;;;;;;;;;;;7.02;32.06;94564.50;4940524;28;19934;-74
2024/03/25 11:18:55;;;;;;;;;;;;;;;6.84;41.37;94563.00;4941102;29;19926;-74
2024/03/25 11:21:24;;;;;;;;;;;;;;;8.17;33.45;94556.13;4942154;28;19941;-75
2024/03/25 11:23:49;;;;;;;;;;;;;;;7.90;32.19;94560.34;4940791;29;20251;-74
2024/03/25 11:26:22;;;;;;;;;;;;;;;9.36;35.86;94552.16;4940577;29;19930;-76
2024/03/25 11:28:47;;;;;;;;;;;;;;;9.43;32.93;94553.00;4943138;29;19926;-78
2024/03/25 11:31:13;;;;;;;;;;;;;;;10.07;36.99;94546.72;4942427;28;19936;-76
2024/03/25 11:33:39;;;;;;;;;;;;;;;10.40;26.88;94537.16;4943070;28;19918;-76
2024/03/25 11:36:04;;;;;;;;;;;;;;;10.75;36.20;94532.44;4940759;29;20592;-77
2024/03/25 11:38:29;;;;;;;;;;;;;;;10.52;27.07;94527.53;4941500;29;19978;-77
2024/03/25 11:40:54;;;;;;;;;;;;;;;10.51;33.79;94535.72;4942472;29;19956;-75
2024/03/25 11:43:20;;;;;;;;;;;;;;;10.21;27.76;94532.41;4940535;29;20502;-75
2024/03/25 11:45:48;;;;;;;;;;;;;;;10.04;35.41;94515.16;4939084;28;21666;-73
2024/03/25 11:48:14;;;;;;;;;;;;;;;10.32;36.31;94515.03;4935901;29;20025;-73
2024/03/25 11:50:39;;;;;;;;;;;;;;;11.02;36.78;94512.97;4921308;29;20045;-74
2024/03/25 11:53:05;;;;;;;;;;;;;;;11.48;34.02;94505.06;4922953;29;20700;-73
2024/03/25 11:55:30;;;;;;;;;;;;;;;11.56;25.27;94504.00;4922387;29;20006;-74
2024/03/25 11:57:56;;;;;;;;;;;;;;;11.34;26.31;94497.13;4921111;28;21772;-77
2024/03/25 12:00:21;;;;;;;;;;;;;;;11.04;33.67;94489.59;4921944;29;19961;-76
2024/03/25 12:02:46;;;;;;;;;;;;;;;11.61;30.50;94490.84;4923073;28;20001;-77
2024/03/25 12:05:11;;;;;;;;;;;;;;;12.32;35.13;94480.22;4922799;29;19977;-71
2024/03/25 12:07:37;;;;;;;;;;;;;;;12.53;29.81;94470.19;4922440;29;19986;-75
2024/03/25 12:12:46;;;;;;;;;;;;;;;13.78;33.82;94465.78;4923345;29;19929;-75
2024/03/25 12:15:12;;;;;;;;;;;;;;;14.13;33.58;94462.44;4918381;28;19930;-73
2024/03/25 12:17:37;;;;;;;;;;;;;;;14.29;31.24;94460.97;4922175;28;20327;-74
2024/03/25 12:20:06;;;;;;;;;;;;;;;14.18;26.79;94451.84;4938551;29;19925;-75
2024/03/25 12:22:32;;;;;;;;;;;;;;;14.26;30.94;94450.72;4939764;28;20117;-74
2024/03/25 12:24:58;;;;;;;;;;;;;;;14.40;23.12;94445.97;4942006;28;19931;-73
2024/03/25 12:27:24;;;;;;;;;;;;;;;13.76;23.57;94439.25;4939195;28;20332;-77
2024/03/25 12:29:58;;;;;;;;;;;;;;;13.18;23.02;94430.72;4938340;28;20305;-78
2024/03/25 12:32:36;;;;;;;;;;;;;;;12.91;27.12;94423.81;4920092;29;19927;-76
2024/03/25 12:35:02;;;;;;;;;;;;;;;12.83;26.54;94426.78;4920270;29;19927;-77
2024/03/25 12:37:27;;;;;;;;;;;;;;;12.15;25.45;94429.22;4920446;28;20010;-75
2024/03/25 12:39:52;;;;;;;;;;;;;;;12.08;25.24;94417.78;4941125;29;19998;-75
2024/03/25 12:42:18;;;;;;;;;;;;;;;11.38;29.71;94423.72;4955548;28;19923;-75
2024/03/25 12:44:43;;;;;;;;;;;;;;;11.99;25.35;94417.19;4939612;29;19957;-74
2024/03/25 12:47:08;;;;;;;;;;;;;;;12.51;26.46;94414.34;4939807;28;20013;-74
2024/03/25 12:49:33;;;;;;;;;;;;;;;10.87;27.79;94412.81;4941558;28;19922;-74
2024/03/25 12:51:59;;;;;;;;;;;;;;;11.98;27.47;94407.56;4941072;29;19934;-73